Time;durP1;ratioP1;P1;durP2;ratioP2;P2;SDS_P1;SDS_P2;PMS_P1;PMS_P2;Temp;Humidity;BMP_temperature;BMP_pressure;BME280_temperature;BME280_humidity;BME280_pressure;Samples;Min_cycle;Max_cycle;Signal;HPM_P1;HPM_P2
2022/12/04 00:01:09;;;;;;;15.97;8.03;;;;;;;2.27;75.44;100448.78;5013299;28;20246;-66
2022/12/04 00:03:36;;;;;;;17.07;8.00;;;;;;;2.27;75.29;100438.34;5023957;28;20265;-65
2022/12/04 00:06:11;;;;;;;15.53;8.60;;;;;;;2.25;75.39;100437.38;5014955;28;20640;-65
2022/12/04 00:08:39;;;;;;;16.93;7.53;;;;;;;2.32;75.43;100438.56;5021802;28;20256;-65
2022/12/04 00:11:07;;;;;;;16.40;8.30;;;;;;;2.24;75.60;100429.47;5012927;28;20287;-65
2022/12/04 00:13:34;;;;;;;18.33;7.93;;;;;;;2.28;75.58;100442.75;5021161;28;20285;-65
2022/12/04 00:16:06;;;;;;;19.63;8.30;;;;;;;2.25;75.63;100445.22;5013861;28;20199;-65
2022/12/04 00:18:33;;;;;;;17.87;9.17;;;;;;;2.22;75.91;100441.56;5012579;28;20199;-66
2022/12/04 00:21:03;;;;;;;18.43;7.90;;;;;;;2.25;75.68;100444.31;5012304;28;20287;-65
2022/12/04 00:23:29;;;;;;;15.83;8.73;;;;;;;2.18;76.45;100454.50;5020935;28;20306;-65
2022/12/04 00:26:03;;;;;;;18.30;8.13;;;;;;;2.25;75.94;100454.78;5021046;28;20207;-65
2022/12/04 00:28:30;;;;;;;19.13;9.20;;;;;;;2.27;75.94;100456.63;5023705;28;20203;-66
2022/12/04 00:30:56;;;;;;;20.53;9.07;;;;;;;2.28;76.11;100457.53;5021133;28;20330;-66
2022/12/04 00:33:22;;;;;;;18.33;8.30;;;;;;;2.20;76.11;100450.22;5023326;28;20218;-66
2022/12/04 00:36:00;;;;;;;17.80;8.53;;;;;;;2.18;76.12;100454.50;5026504;28;20287;-66
2022/12/04 00:38:26;;;;;;;16.83;8.10;;;;;;;2.11;76.40;100464.56;5023762;28;20237;-65
2022/12/04 00:40:53;;;;;;;18.33;9.80;;;;;;;2.09;76.30;100461.00;5002562;28;20204;-65
2022/12/04 00:43:20;;;;;;;18.60;9.23;;;;;;;2.07;77.05;100465.25;5015963;28;20231;-65
2022/12/04 00:45:47;;;;;;;18.20;9.33;;;;;;;2.17;76.39;100452.69;5015312;28;20211;-65
2022/12/04 00:48:14;;;;;;;15.40;8.27;;;;;;;2.18;76.29;100464.03;5023393;28;20650;-65
2022/12/04 00:50:40;;;;;;;16.30;8.67;;;;;;;2.16;75.98;100457.84;5018698;28;20206;-65
2022/12/04 00:53:07;;;;;;;18.37;8.00;;;;;;;2.12;76.46;100468.97;5017595;28;20226;-65
2022/12/04 00:55:36;;;;;;;18.73;8.57;;;;;;;2.07;76.58;100465.25;5020750;28;20730;-65
2022/12/04 00:58:03;;;;;;;16.43;7.90;;;;;;;2.10;76.57;100448.00;5016019;28;20363;-65
2022/12/04 01:00:30;;;;;;;18.50;9.13;;;;;;;2.09;76.90;100453.16;5019768;28;20262;-66
2022/12/04 01:02:56;;;;;;;17.47;8.27;;;;;;;2.09;76.85;100447.94;5021419;28;20699;-65
2022/12/04 01:05:23;;;;;;;18.77;8.90;;;;;;;2.12;76.56;100445.47;5024560;28;20279;-65
2022/12/04 01:07:49;;;;;;;18.83;9.43;;;;;;;2.10;76.72;100447.13;5021247;28;20237;-65
2022/12/04 01:10:15;;;;;;;16.80;8.47;;;;;;;2.03;76.59;100448.53;5019423;28;20671;-65
2022/12/04 01:12:42;;;;;;;15.47;8.43;;;;;;;2.07;76.84;100441.75;5018475;28;20310;-65
2022/12/04 01:15:09;;;;;;;18.13;9.03;;;;;;;2.01;77.09;100438.84;5016781;28;20195;-66
2022/12/04 01:17:35;;;;;;;19.20;9.70;;;;;;;2.03;77.03;100439.81;5025300;28;20200;-66
2022/12/04 01:20:03;;;;;;;19.90;9.73;;;;;;;2.15;77.00;100438.66;5006416;28;20286;-65
2022/12/04 01:22:29;;;;;;;18.23;9.57;;;;;;;2.13;77.02;100439.41;5020616;28;20307;-65
2022/12/04 01:24:56;;;;;;;20.47;9.53;;;;;;;2.11;76.80;100438.44;5027316;28;20227;-65
2022/12/04 01:27:23;;;;;;;19.93;9.70;;;;;;;2.09;77.11;100437.50;5024749;28;20227;-65
2022/12/04 01:29:49;;;;;;;16.70;8.80;;;;;;;2.06;77.21;100433.00;5022098;28;20270;-65
2022/12/04 01:32:15;;;;;;;19.47;9.07;;;;;;;2.03;77.72;100413.69;5020034;28;20308;-66
2022/12/04 01:34:42;;;;;;;16.07;8.27;;;;;;;2.00;77.58;100423.97;5022520;28;20204;-65
2022/12/04 01:37:08;;;;;;;17.73;9.37;;;;;;;2.06;77.20;100422.56;5012285;28;20755;-66
2022/12/04 01:39:36;;;;;;;15.67;8.63;;;;;;;2.04;76.95;100413.75;5017042;28;20204;-65
2022/12/04 01:42:03;;;;;;;18.57;10.00;;;;;;;2.02;77.18;100409.28;5018108;28;20219;-66
2022/12/04 01:44:30;;;;;;;17.03;7.80;;;;;;;2.10;77.20;100413.16;5026325;28;20195;-65
2022/12/04 01:47:00;;;;;;;19.07;9.47;;;;;;;2.09;77.57;100408.75;5020207;28;20242;-66
2022/12/04 01:49:36;;;;;;;14.27;7.77;;;;;;;2.10;77.31;100397.47;5023987;28;20212;-65
2022/12/04 01:52:13;;;;;;;18.27;8.80;;;;;;;2.08;77.34;100404.34;5012510;28;20241;-65
2022/12/04 01:54:44;;;;;;;18.17;8.93;;;;;;;2.05;77.32;100402.50;5017734;28;20203;-66
2022/12/04 01:57:22;;;;;;;19.27;9.23;;;;;;;2.08;77.69;100415.69;5021654;28;20257;-65
2022/12/04 01:59:56;;;;;;;16.40;8.60;;;;;;;2.11;77.82;100420.16;5017176;28;20196;-65
2022/12/04 02:02:28;;;;;;;19.63;9.80;;;;;;;2.00;77.90;100430.13;5019546;28;20304;-65
2022/12/04 02:04:55;;;;;;;17.00;8.70;;;;;;;2.06;77.82;100429.50;5026186;28;20202;-65
2022/12/04 02:07:21;;;;;;;16.67;8.87;;;;;;;2.11;77.29;100430.63;5019330;28;20203;-65
2022/12/04 02:09:52;;;;;;;18.70;9.83;;;;;;;2.10;77.83;100441.88;5025793;28;20195;-66
2022/12/04 02:12:27;;;;;;;19.77;9.80;;;;;;;2.15;77.69;100443.91;5020659;28;20258;-65
2022/12/04 02:15:16;;;;;;;19.40;8.43;;;;;;;2.09;76.73;100435.78;5020961;28;20295;-66
2022/12/04 02:18:15;;;;;;;19.33;9.73;;;;;;;2.15;77.20;100456.94;5024232;28;20199;-66
2022/12/04 02:20:57;;;;;;;15.33;8.27;;;;;;;2.13;77.21;100450.75;4974037;28;21002;-65
2022/12/04 02:23:47;;;;;;;18.17;8.20;;;;;;;2.12;76.80;100455.91;5023111;28;20392;-65
2022/12/04 02:26:26;;;;;;;16.57;8.33;;;;;;;2.17;77.09;100443.97;5017272;28;20283;-66
2022/12/04 02:29:06;;;;;;;17.80;8.40;;;;;;;2.14;76.95;100441.22;5025324;28;20278;-65
2022/12/04 02:31:55;;;;;;;15.83;7.70;;;;;;;2.13;77.31;100437.69;5014267;28;20228;-65
2022/12/04 02:34:28;;;;;;;17.13;8.13;;;;;;;2.08;77.18;100433.09;5014626;28;20629;-66
2022/12/04 02:37:00;;;;;;;20.50;9.50;;;;;;;2.10;77.38;100431.44;5018727;28;20199;-66
2022/12/04 02:39:35;;;;;;;15.83;8.57;;;;;;;2.10;77.62;100426.22;5022387;28;20283;-65
2022/12/04 02:42:10;;;;;;;19.50;9.90;;;;;;;2.09;77.57;100429.66;5013845;28;20784;-66
2022/12/04 02:44:46;;;;;;;14.93;8.70;;;;;;;2.20;76.74;100436.28;5025140;28;20199;-66
2022/12/04 02:47:18;;;;;;;16.50;8.53;;;;;;;2.18;76.88;100441.44;5019264;28;20738;-65
2022/12/04 02:49:49;;;;;;;18.33;8.80;;;;;;;2.17;77.28;100437.03;5024139;28;20278;-65
2022/12/04 02:52:21;;;;;;;16.07;8.70;;;;;;;2.15;77.30;100445.59;5015267;28;20267;-65
2022/12/04 02:54:53;;;;;;;19.57;9.40;;;;;;;2.15;77.22;100443.00;5016281;28;20739;-65
2022/12/04 02:57:26;;;;;;;16.73;8.80;;;;;;;2.15;77.21;100430.84;5020716;28;20195;-66
2022/12/04 02:59:56;;;;;;;17.03;8.60;;;;;;;2.11;77.44;100431.50;5016898;28;20282;-66
2022/12/04 03:02:58;;;;;;;17.00;9.10;;;;;;;2.06;77.77;100434.72;5014724;28;20245;-65
2022/12/04 03:05:53;;;;;;;15.97;8.23;;;;;;;2.14;76.70;100430.75;5018593;28;20957;-65
2022/12/04 03:08:25;;;;;;;16.27;8.30;;;;;;;2.15;76.92;100429.94;5008844;28;21255;-66
2022/12/04 03:10:56;;;;;;;14.73;7.83;;;;;;;2.11;77.17;100425.41;5014008;28;20208;-66
2022/12/04 03:13:29;;;;;;;14.57;8.30;;;;;;;2.12;77.23;100419.34;5019777;28;20224;-66
2022/12/04 03:16:02;;;;;;;16.87;8.53;;;;;;;2.06;77.74;100417.34;5013042;28;20290;-66
2022/12/04 03:18:35;;;;;;;18.03;8.70;;;;;;;2.12;77.51;100425.47;5017472;28;20278;-66
2022/12/04 03:21:13;;;;;;;15.33;8.03;;;;;;;2.13;77.15;100415.91;5011369;28;20266;-65
2022/12/04 03:23:52;;;;;;;15.90;8.63;;;;;;;2.10;77.57;100424.50;5017307;28;20518;-65
2022/12/04 03:26:27;;;;;;;15.03;7.53;;;;;;;2.16;77.51;100418.66;5010045;28;20554;-65
2022/12/04 03:29:04;;;;;;;18.90;9.03;;;;;;;2.06;77.33;100419.97;5013365;28;20229;-65
2022/12/04 03:31:41;;;;;;;15.00;8.13;;;;;;;2.11;77.40;100415.84;5023326;28;20191;-66
2022/12/04 03:34:11;;;;;;;16.73;8.30;;;;;;;2.08;77.29;100413.09;5015861;28;20507;-65
2022/12/04 03:36:52;;;;;;;18.87;9.47;;;;;;;2.12;77.29;100414.13;5014834;28;20553;-66
2022/12/04 03:39:28;;;;;;;14.50;8.47;;;;;;;2.11;77.08;100413.22;5009510;28;20279;-65
2022/12/04 03:42:07;;;;;;;16.13;8.93;;;;;;;2.10;77.30;100419.28;5016229;28;20597;-66
2022/12/04 03:44:51;;;;;;;19.43;8.53;;;;;;;2.06;77.32;100398.16;5020835;28;20277;-65
2022/12/04 03:47:28;;;;;;;16.50;8.03;;;;;;;2.02;77.25;100404.06;5021548;28;20203;-65
2022/12/04 03:50:03;;;;;;;17.13;8.50;;;;;;;2.04;77.15;100403.31;5013586;28;20246;-66
2022/12/04 03:52:45;;;;;;;17.20;8.73;;;;;;;2.00;77.73;100411.84;5020468;28;20219;-65
2022/12/04 03:55:23;;;;;;;18.67;8.87;;;;;;;2.10;77.54;100407.94;5019048;28;20552;-65
2022/12/04 03:57:55;;;;;;;14.77;8.00;;;;;;;2.08;77.16;100399.13;5015267;28;20230;-65
2022/12/04 04:00:22;;;;;;;15.33;8.03;;;;;;;2.07;77.46;100399.94;5023877;28;20616;-66
2022/12/04 04:02:58;;;;;;;16.77;8.03;;;;;;;1.99;77.87;100393.44;5011447;28;20297;-65
2022/12/04 04:05:28;;;;;;;15.87;8.20;;;;;;;2.03;77.64;100398.03;5013287;28;20261;-66
2022/12/04 04:08:24;;;;;;;15.87;8.47;;;;;;;2.09;77.40;100407.03;5019706;28;20226;-66
2022/12/04 04:10:49;;;;;;;17.73;8.57;;;;;;;2.05;77.45;100399.88;5022873;28;20231;-66
2022/12/04 04:24:38;;;;;;;17.07;8.33;;;;;;;2.03;77.38;100406.75;5014911;28;20251;-65
2022/12/04 04:27:05;;;;;;;15.90;8.07;;;;;;;2.06;77.40;100399.06;5013963;28;20235;-66
2022/12/04 04:29:32;;;;;;;17.13;8.07;;;;;;;2.08;77.52;100405.25;5016967;28;20265;-65
2022/12/04 04:32:09;;;;;;;16.63;9.10;;;;;;;1.96;77.71;100402.03;5023974;28;20726;-65
2022/12/04 04:34:59;;;;;;;15.57;8.00;;;;;;;1.98;77.90;100413.44;5023474;28;20222;-66
2022/12/04 04:37:53;;;;;;;13.67;7.43;;;;;;;2.04;77.33;100410.25;5015549;28;20357;-66
2022/12/04 04:40:51;;;;;;;16.33;8.30;;;;;;;2.04;77.83;100411.16;5018679;28;20298;-65
2022/12/04 04:43:27;;;;;;;15.53;8.27;;;;;;;2.02;77.65;100397.13;5001335;28;20223;-66
2022/12/04 04:45:59;;;;;;;16.00;8.07;;;;;;;1.96;77.92;100404.66;5009452;28;20235;-65
2022/12/04 04:48:35;;;;;;;15.10;8.03;;;;;;;1.99;77.82;100404.78;5017209;28;20193;-65
2022/12/04 04:51:03;;;;;;;16.00;8.33;;;;;;;1.98;77.85;100408.22;5017828;28;20631;-66
2022/12/04 04:53:35;;;;;;;16.47;8.27;;;;;;;2.01;77.60;100408.41;5013966;28;20523;-65
2022/12/04 04:56:04;;;;;;;18.90;8.37;;;;;;;2.07;77.59;100410.41;5014782;28;20203;-66
2022/12/04 04:58:31;;;;;;;16.70;8.43;;;;;;;2.02;77.94;100407.56;5009818;28;20638;-66
2022/12/04 05:01:07;;;;;;;15.53;8.50;;;;;;;2.00;77.67;100403.06;5020917;28;20287;-65
2022/12/04 05:03:34;;;;;;;14.37;7.53;;;;;;;2.12;78.04;100408.91;5017994;28;20226;-66
2022/12/04 05:06:00;;;;;;;13.63;7.17;;;;;;;2.12;77.43;100403.69;5015797;28;20203;-65
2022/12/04 05:08:27;;;;;;;16.57;8.13;;;;;;;2.17;77.37;100399.56;5015883;28;20200;-66
2022/12/04 05:10:54;;;;;;;17.63;8.57;;;;;;;1.98;77.64;100389.94;5022740;28;22324;-66
2022/12/04 05:13:20;;;;;;;16.03;8.40;;;;;;;2.04;78.04;100398.09;5020010;28;20227;-67
2022/12/04 05:16:07;;;;;;;16.40;7.40;;;;;;;2.05;77.64;100389.44;5011677;28;20207;-67
2022/12/04 05:18:34;;;;;;;16.03;7.97;;;;;;;2.09;77.92;100393.09;5022812;28;20231;-67
2022/12/04 05:21:08;;;;;;;15.43;7.57;;;;;;;2.10;77.50;100397.47;5012579;28;20691;-67
2022/12/04 05:23:35;;;;;;;14.73;7.20;;;;;;;2.06;77.78;100393.84;5018824;28;20304;-67
2022/12/04 05:26:03;;;;;;;12.53;6.70;;;;;;;2.08;77.67;100392.19;5022139;28;20572;-67
2022/12/04 05:28:30;;;;;;;15.30;8.23;;;;;;;2.02;77.55;100386.69;5024834;28;20687;-67
2022/12/04 05:30:58;;;;;;;15.07;7.60;;;;;;;2.02;77.91;100397.13;5019354;28;20228;-67
2022/12/04 05:33:24;;;;;;;16.13;7.73;;;;;;;2.01;77.88;100392.72;5016325;28;20223;-67
2022/12/04 05:35:58;;;;;;;15.07;7.87;;;;;;;1.99;77.90;100403.88;5012563;28;20195;-67
2022/12/04 05:38:25;;;;;;;17.70;8.00;;;;;;;2.00;77.91;100403.06;5017576;28;20669;-67
2022/12/04 05:40:51;;;;;;;16.93;7.93;;;;;;;1.91;78.08;100400.91;5025053;28;20234;-67
2022/12/04 05:43:18;;;;;;;16.57;8.73;;;;;;;2.01;78.22;100404.88;5027382;28;20215;-67
2022/12/04 05:45:44;;;;;;;19.17;9.07;;;;;;;1.96;78.38;100403.75;5002629;28;20287;-67
2022/12/04 05:48:11;;;;;;;17.57;7.67;;;;;;;1.94;78.42;100408.00;5013859;28;20254;-67
2022/12/04 05:50:37;;;;;;;15.07;7.67;;;;;;;2.01;78.37;100410.13;5015195;28;20286;-67
2022/12/04 05:53:04;;;;;;;18.70;8.33;;;;;;;1.93;78.66;100414.94;5028712;28;20250;-67
2022/12/04 05:55:30;;;;;;;16.97;8.37;;;;;;;1.95;78.21;100415.91;5020115;28;20290;-67
2022/12/04 05:57:57;;;;;;;15.60;8.03;;;;;;;1.99;78.28;100412.63;5009068;28;20219;-67
2022/12/04 06:00:23;;;;;;;13.93;6.90;;;;;;;1.98;78.12;100423.88;5020151;28;20207;-67
2022/12/04 06:02:50;;;;;;;13.87;6.97;;;;;;;2.04;78.50;100421.59;5017248;28;20663;-67
2022/12/04 06:05:16;;;;;;;16.27;7.73;;;;;;;2.04;78.27;100410.25;5025026;28;20207;-67
2022/12/04 06:07:43;;;;;;;19.13;7.97;;;;;;;2.03;78.16;100417.19;5014815;28;20245;-67
2022/12/04 06:10:09;;;;;;;16.17;8.13;;;;;;;1.95;78.70;100404.56;5021212;28;20577;-67
2022/12/04 06:12:35;;;;;;;16.63;8.40;;;;;;;1.97;78.76;100418.59;5017902;28;20227;-67
2022/12/04 06:15:02;;;;;;;15.00;7.50;;;;;;;1.97;78.57;100406.44;5011801;28;20195;-67
2022/12/04 06:17:29;;;;;;;16.70;8.37;;;;;;;1.94;79.22;100408.91;5012132;28;20208;-67
2022/12/04 06:19:56;;;;;;;13.90;7.30;;;;;;;2.00;79.00;100423.97;5013847;28;20208;-67
2022/12/04 06:22:22;;;;;;;15.70;8.03;;;;;;;1.93;79.24;100406.22;5019316;28;20815;-67
2022/12/04 06:24:49;;;;;;;16.00;8.00;;;;;;;1.98;79.29;100416.06;5012541;28;20216;-67
2022/12/04 06:27:15;;;;;;;15.57;7.47;;;;;;;1.96;79.27;100409.88;5021086;28;20290;-67
2022/12/04 06:29:57;;;;;;;17.00;8.07;;;;;;;1.95;79.17;100409.78;5015684;28;20199;-67
2022/12/04 06:32:24;;;;;;;17.73;8.47;;;;;;;2.02;78.96;100412.81;5015276;28;20219;-67
2022/12/04 06:34:52;;;;;;;15.23;7.90;;;;;;;2.02;79.24;100414.50;5015446;28;20191;-68
2022/12/04 06:37:20;;;;;;;14.27;7.87;;;;;;;2.00;78.70;100401.38;5010792;28;20254;-67
2022/12/04 06:39:46;;;;;;;15.27;7.27;;;;;;;2.04;78.67;100416.38;5017489;28;20192;-67
2022/12/04 06:42:13;;;;;;;15.80;7.43;;;;;;;2.12;78.36;100420.25;5006129;28;20224;-67
2022/12/04 06:44:39;;;;;;;16.43;7.73;;;;;;;2.10;78.58;100413.16;5013342;28;20240;-67
2022/12/04 06:47:07;;;;;;;14.30;7.60;;;;;;;2.12;78.64;100411.50;5014696;28;20200;-67
2022/12/04 06:49:33;;;;;;;18.43;8.80;;;;;;;2.05;78.88;100419.88;5020941;28;20196;-67
2022/12/04 06:51:59;;;;;;;17.20;8.13;;;;;;;2.13;78.81;100413.28;5021980;28;20333;-67
2022/12/04 06:54:26;;;;;;;16.83;8.10;;;;;;;2.04;78.92;100405.94;5024597;28;20201;-67
2022/12/04 06:56:52;;;;;;;18.17;8.30;;;;;;;1.94;78.97;100389.72;5022419;28;20195;-67
2022/12/04 06:59:18;;;;;;;15.27;8.20;;;;;;;2.04;78.92;100402.44;5013836;28;20240;-67
2022/12/04 07:01:45;;;;;;;17.70;7.97;;;;;;;2.03;78.86;100400.63;5011264;28;20265;-67
2022/12/04 07:04:11;;;;;;;17.50;8.27;;;;;;;2.06;79.05;100403.38;5019551;28;20319;-67
2022/12/04 07:06:38;;;;;;;18.70;7.80;;;;;;;2.14;78.67;100400.31;5015796;28;20300;-67
2022/12/04 07:09:10;;;;;;;16.30;7.77;;;;;;;2.12;78.85;100401.97;5016016;28;20208;-67
2022/12/04 07:11:38;;;;;;;14.50;7.53;;;;;;;2.08;79.06;100407.88;4996477;28;20294;-67
2022/12/04 07:14:05;;;;;;;15.57;7.70;;;;;;;2.08;79.16;100410.47;5012594;28;20265;-67
2022/12/04 07:16:32;;;;;;;13.30;7.10;;;;;;;2.12;78.66;100394.13;5011920;28;20230;-67
2022/12/04 07:19:06;;;;;;;15.40;7.33;;;;;;;2.12;79.00;100401.97;4999524;28;20196;-67
2022/12/04 07:21:33;;;;;;;14.97;7.27;;;;;;;2.19;78.64;100400.53;5001279;28;20225;-68
2022/12/04 07:24:00;;;;;;;17.10;7.33;;;;;;;2.16;78.96;100398.66;5013132;28;20585;-67
2022/12/04 07:26:28;;;;;;;14.40;7.20;;;;;;;2.18;78.54;100393.50;5009136;28;20755;-67
2022/12/04 07:28:56;;;;;;;14.07;7.30;;;;;;;2.21;78.55;100406.72;5017271;28;20243;-67
2022/12/04 07:31:24;;;;;;;17.63;7.67;;;;;;;2.20;78.98;100399.69;5017712;28;20257;-67
2022/12/04 07:33:52;;;;;;;13.07;6.67;;;;;;;2.21;78.85;100393.66;5011371;28;20254;-67
2022/12/04 07:36:21;;;;;;;13.33;6.60;;;;;;;2.24;78.21;100378.09;5016740;28;20230;-67
2022/12/04 07:38:48;;;;;;;16.63;7.53;;;;;;;2.22;78.35;100382.38;5011049;28;20359;-67
2022/12/04 07:41:15;;;;;;;16.40;7.10;;;;;;;2.22;78.35;100382.38;5013551;28;20296;-67
2022/12/04 07:43:42;;;;;;;13.87;7.63;;;;;;;2.33;77.69;100385.47;5021960;28;20228;-67
2022/12/04 07:46:17;;;;;;;13.27;6.93;;;;;;;2.31;78.22;100392.34;5018839;28;20196;-67
2022/12/04 07:48:43;;;;;;;13.67;6.70;;;;;;;2.29;77.93;100392.28;5013797;28;20226;-68
2022/12/04 07:51:19;;;;;;;14.63;6.80;;;;;;;2.28;77.85;100389.59;5011575;28;20204;-67
2022/12/04 07:53:46;;;;;;;14.80;7.13;;;;;;;2.35;78.43;100389.94;5015608;28;20497;-67
2022/12/04 07:56:13;;;;;;;14.97;7.57;;;;;;;2.45;77.95;100391.28;5018634;28;20671;-67
2022/12/04 07:58:40;;;;;;;14.10;7.03;;;;;;;2.41;78.42;100387.63;5013895;28;20196;-67
2022/12/04 08:01:12;;;;;;;15.37;6.63;;;;;;;2.42;78.33;100405.09;5018066;28;20200;-67
2022/12/04 08:03:39;;;;;;;14.97;7.00;;;;;;;2.47;77.83;100402.69;5012726;28;20699;-67
2022/12/04 08:06:13;;;;;;;12.77;6.93;;;;;;;2.52;77.60;100401.19;5010634;28;20196;-67
2022/12/04 08:08:39;;;;;;;10.93;6.40;;;;;;;2.48;77.80;100413.22;5013865;28;20250;-67
2022/12/04 08:11:08;;;;;;;14.00;6.27;;;;;;;2.64;77.86;100421.75;5017813;28;20275;-67
2022/12/04 08:13:34;;;;;;;11.10;5.97;;;;;;;2.59;77.53;100416.31;5016028;28;20521;-67
2022/12/04 08:16:04;;;;;;;10.87;6.13;;;;;;;2.61;77.42;100419.91;5017823;28;20200;-67
2022/12/04 08:18:31;;;;;;;11.80;6.47;;;;;;;2.57;78.08;100417.06;5014444;28;20208;-67
2022/12/04 08:21:11;;;;;;;12.70;6.67;;;;;;;2.61;78.25;100426.84;5015523;28;20260;-67
2022/12/04 08:23:40;;;;;;;10.83;6.37;;;;;;;2.64;78.26;100416.53;5010666;28;20691;-67
2022/12/04 08:26:07;;;;;;;11.57;6.17;;;;;;;2.74;77.66;100414.38;5012268;28;20624;-67
2022/12/04 08:28:35;;;;;;;12.67;6.23;;;;;;;2.76;77.62;100423.19;5017293;28;20254;-67
2022/12/04 08:31:03;;;;;;;10.80;6.47;;;;;;;2.82;77.11;100426.09;5014113;28;20202;-67
2022/12/04 08:33:31;;;;;;;10.50;6.27;;;;;;;2.83;77.39;100417.44;5010535;28;20599;-67
2022/12/04 08:35:58;;;;;;;11.00;5.70;;;;;;;2.95;77.01;100413.56;5014493;28;20672;-67
2022/12/04 08:38:24;;;;;;;11.13;6.03;;;;;;;2.90;77.48;100412.47;5012383;28;20555;-67
2022/12/04 08:40:50;;;;;;;11.43;6.23;;;;;;;2.87;77.35;100412.34;5018855;28;20278;-67
2022/12/04 08:43:17;;;;;;;11.20;5.83;;;;;;;2.92;77.57;100416.94;5019481;28;20757;-69
2022/12/04 08:45:43;;;;;;;11.03;5.60;;;;;;;2.86;77.56;100402.69;5013920;28;20221;-67
2022/12/04 08:48:10;;;;;;;12.17;6.23;;;;;;;2.85;77.85;100393.97;5003536;28;20295;-67
2022/12/04 08:50:36;;;;;;;13.97;7.03;;;;;;;2.89;77.70;100392.38;5015462;28;20295;-67
2022/12/04 08:53:03;;;;;;;13.07;6.93;;;;;;;2.91;77.96;100395.94;5012769;28;20278;-68
2022/12/04 08:55:29;;;;;;;13.73;7.23;;;;;;;2.90;78.05;100395.06;5011655;28;20686;-67
2022/12/04 08:57:55;;;;;;;12.47;6.97;;;;;;;2.97;77.81;100389.25;5019876;28;20292;-67
2022/12/04 09:00:24;;;;;;;14.83;7.77;;;;;;;3.02;77.51;100397.31;5018136;28;20199;-67
2022/12/04 09:02:51;;;;;;;13.87;6.77;;;;;;;2.99;77.58;100394.56;5022827;28;20298;-67
2022/12/04 09:05:17;;;;;;;14.57;7.53;;;;;;;3.02;77.52;100398.19;5004850;28;20248;-67
2022/12/04 09:07:43;;;;;;;11.27;6.57;;;;;;;3.04;77.65;100395.66;5023391;28;20292;-67
2022/12/04 09:10:11;;;;;;;11.90;6.23;;;;;;;3.00;77.78;100397.22;5000352;28;20202;-67
2022/12/04 09:12:37;;;;;;;12.43;6.37;;;;;;;3.05;77.54;100395.72;5005518;28;20307;-67
2022/12/04 09:15:04;;;;;;;11.77;6.00;;;;;;;3.05;77.51;100394.81;5011012;28;20290;-67
2022/12/04 09:17:31;;;;;;;9.10;5.43;;;;;;;3.03;77.93;100401.69;5026281;28;20201;-67
2022/12/04 09:19:57;;;;;;;11.97;6.43;;;;;;;3.01;77.63;100388.56;5023099;28;20230;-67
2022/12/04 09:22:27;;;;;;;12.57;6.67;;;;;;;3.06;77.32;100383.53;5020023;28;20661;-67
2022/12/04 09:25:13;;;;;;;10.60;6.20;;;;;;;3.11;77.45;100395.97;5015339;28;20304;-67
2022/12/04 09:27:43;;;;;;;11.17;6.33;;;;;;;3.20;77.32;100391.94;5020883;28;20281;-67
2022/12/04 09:30:11;;;;;;;12.07;7.07;;;;;;;3.23;77.26;100407.81;5017054;28;20221;-67
2022/12/04 09:32:38;;;;;;;11.73;6.63;;;;;;;3.29;76.88;100410.69;5018822;28;20297;-67
2022/12/04 09:35:05;;;;;;;12.23;6.87;;;;;;;3.24;76.80;100405.25;5028634;28;20198;-67
2022/12/04 09:37:32;;;;;;;11.37;6.50;;;;;;;3.31;76.57;100407.31;5015090;28;20195;-67
2022/12/04 09:39:58;;;;;;;11.10;6.20;;;;;;;3.26;76.54;100400.97;5013130;28;20257;-67
2022/12/04 09:42:47;;;;;;;10.63;5.63;;;;;;;3.30;76.89;100402.91;5019075;28;20321;-67
2022/12/04 09:45:21;;;;;;;11.23;6.83;;;;;;;3.21;77.47;100412.97;5016238;28;20702;-67
2022/12/04 09:47:51;;;;;;;13.00;6.40;;;;;;;3.32;76.74;100393.38;5024485;28;20256;-67
2022/12/04 09:50:19;;;;;;;12.03;6.63;;;;;;;3.40;76.33;100394.59;5016188;28;20286;-67
2022/12/04 09:52:57;;;;;;;14.13;7.03;;;;;;;3.44;75.97;100378.19;5011729;28;20445;-67
2022/12/04 09:55:38;;;;;;;13.10;6.97;;;;;;;3.50;76.21;100376.66;5017070;28;20712;-67
2022/12/04 09:58:11;;;;;;;12.33;6.17;;;;;;;3.46;75.91;100394.84;5017924;28;20247;-68
2022/12/04 10:00:41;;;;;;;12.53;6.40;;;;;;;3.47;75.77;100393.13;5015111;28;20206;-67
2022/12/04 10:03:15;;;;;;;11.73;6.10;;;;;;;3.43;75.99;100385.97;5011760;28;20216;-67
2022/12/04 10:05:48;;;;;;;14.53;7.13;;;;;;;3.35;76.30;100382.16;5014556;28;20658;-68
2022/12/04 10:08:39;;;;;;;11.07;5.87;;;;;;;3.45;76.71;100392.16;5021431;28;20283;-66
2022/12/04 10:11:27;;;;;;;12.83;6.37;;;;;;;3.35;76.30;100385.66;5012869;28;20289;-67
2022/12/04 10:14:07;;;;;;;10.77;6.00;;;;;;;3.38;76.38;100390.13;5014536;28;20230;-67
2022/12/04 10:16:52;;;;;;;10.37;6.20;;;;;;;3.47;76.00;100398.34;5000563;28;20282;-67
2022/12/04 10:19:36;;;;;;;13.77;6.77;;;;;;;3.48;76.39;100389.66;5020572;28;20744;-67
2022/12/04 10:22:17;;;;;;;10.47;5.60;;;;;;;3.54;75.67;100378.56;5014393;28;20796;-67
2022/12/04 10:24:52;;;;;;;13.40;6.10;;;;;;;3.54;75.77;100381.19;5019245;28;20294;-67
2022/12/04 10:27:32;;;;;;;15.97;7.80;;;;;;;3.56;75.76;100385.63;5013215;28;20304;-67
2022/12/04 10:30:31;;;;;;;13.27;7.17;;;;;;;3.67;75.67;100378.25;5019675;28;20267;-67
2022/12/04 10:33:26;;;;;;;16.53;7.80;;;;;;;3.53;76.14;100372.44;5015844;28;20223;-67
2022/12/04 10:35:53;;;;;;;14.23;7.57;;;;;;;3.61;75.84;100373.66;5018928;28;20252;-67
2022/12/04 10:38:51;;;;;;;12.40;6.57;;;;;;;3.63;76.15;100368.50;5015732;28;20674;-67
2022/12/04 10:41:49;;;;;;;12.70;6.37;;;;;;;3.68;75.57;100362.59;5013608;28;20287;-68
2022/12/04 10:44:19;;;;;;;12.73;6.73;;;;;;;3.63;75.69;100356.28;5018691;28;20305;-66
2022/12/04 10:46:46;;;;;;;12.70;6.50;;;;;;;3.56;75.82;100349.00;5013007;28;20208;-67
2022/12/04 10:49:18;;;;;;;12.30;6.20;;;;;;;3.67;75.72;100342.47;5014372;28;20208;-67
2022/12/04 10:51:45;;;;;;;12.53;6.63;;;;;;;3.67;75.82;100345.09;5012302;28;20224;-67
2022/12/04 10:54:18;;;;;;;15.03;7.20;;;;;;;3.74;75.36;100336.66;5012957;28;20244;-67
2022/12/04 10:56:56;;;;;;;15.93;7.63;;;;;;;3.79;75.40;100344.69;5017429;28;20475;-67
2022/12/04 10:59:23;;;;;;;14.90;7.30;;;;;;;3.84;74.93;100332.66;4999764;28;20239;-67
2022/12/04 11:01:51;;;;;;;15.13;7.60;;;;;;;3.84;75.37;100342.25;5016064;28;20727;-66
2022/12/04 11:04:29;;;;;;;12.90;7.17;;;;;;;3.86;75.15;100332.72;5012576;28;20254;-67
2022/12/04 11:07:02;;;;;;;14.20;7.30;;;;;;;3.95;75.43;100326.09;5018043;28;20208;-67
2022/12/04 11:09:30;;;;;;;13.73;6.77;;;;;;;3.94;74.71;100319.06;5019280;28;20706;-67
2022/12/04 11:12:14;;;;;;;13.77;6.03;;;;;;;3.99;74.71;100306.16;5017773;28;20195;-67
2022/12/04 11:14:40;;;;;;;10.23;5.93;;;;;;;3.96;74.60;100316.50;5015316;28;20324;-67
2022/12/04 11:17:17;;;;;;;10.13;6.10;;;;;;;3.91;75.04;100318.06;5016359;28;20207;-67
2022/12/04 11:19:45;;;;;;;12.57;6.87;;;;;;;3.97;75.18;100306.09;5011132;28;20254;-67
2022/12/04 11:22:18;;;;;;;14.17;7.20;;;;;;;4.04;74.75;100297.66;5015700;28;20304;-67
2022/12/04 11:24:54;;;;;;;15.70;7.10;;;;;;;4.13;74.34;100304.06;5012812;28;20698;-67
2022/12/04 11:27:27;;;;;;;10.57;6.13;;;;;;;4.13;74.53;100307.59;5009080;28;20241;-67
2022/12/04 11:29:54;;;;;;;13.00;5.97;;;;;;;4.07;74.28;100307.34;5013996;28;20196;-67
2022/12/04 11:32:24;;;;;;;12.80;6.53;;;;;;;4.03;74.60;100303.72;5015265;28;20219;-67
2022/12/04 11:34:54;;;;;;;11.00;5.77;;;;;;;4.04;74.66;100297.66;5016022;28;20571;-67
2022/12/04 11:37:25;;;;;;;10.27;6.13;;;;;;;4.08;74.77;100289.06;5014174;28;20242;-67
2022/12/04 11:39:52;;;;;;;13.17;6.07;;;;;;;4.12;74.64;100290.06;5016875;28;20242;-67
2022/12/04 11:42:28;;;;;;;11.23;6.10;;;;;;;4.16;74.03;100283.22;5014621;28;20220;-67
2022/12/04 11:44:56;;;;;;;10.60;5.93;;;;;;;4.24;74.04;100280.03;4991528;28;20810;-66
2022/12/04 11:47:25;;;;;;;11.10;6.30;;;;;;;4.27;74.15;100288.00;5013513;28;20206;-66
2022/12/04 11:50:11;;;;;;;12.27;6.47;;;;;;;4.26;74.19;100295.81;5013612;28;20226;-66
2022/12/04 11:53:01;;;;;;;11.40;6.17;;;;;;;4.27;73.78;100294.97;5008077;28;20262;-66
2022/12/04 11:56:00;;;;;;;10.20;5.93;;;;;;;4.29;73.55;100295.94;5013864;28;20199;-66